sensor_id;sensor_type;location;lat;lon;timestamp;temperature;humidity
13684;DHT22;6914;53.552;9.908;2022-12-16T00:01:04;-1.00;99.90
13684;DHT22;6914;53.552;9.908;2022-12-16T00:03:31;-1.60;99.90
13684;DHT22;6914;53.552;9.908;2022-12-16T00:05:58;-1.60;99.90
13684;DHT22;6914;53.552;9.908;2022-12-16T00:08:30;-1.60;99.90
13684;DHT22;6914;53.552;9.908;2022-12-16T00:10:57;-1.60;99.90
13684;DHT22;6914;53.552;9.908;2022-12-16T00:13:27;-1.40;99.90
13684;DHT22;6914;53.552;9.908;2022-12-16T00:15:54;-1.90;99.90
13684;DHT22;6914;53.552;9.908;2022-12-16T00:18:22;-1.70;99.90
13684;DHT22;6914;53.552;9.908;2022-12-16T00:20:51;-1.60;99.90
13684;DHT22;6914;53.552;9.908;2022-12-16T00:23:18;-1.70;99.90
13684;DHT22;6914;53.552;9.908;2022-12-16T00:25:47;-1.70;99.90
13684;DHT22;6914;53.552;9.908;2022-12-16T00:28:16;-1.60;99.90
13684;DHT22;6914;53.552;9.908;2022-12-16T00:30:43;-1.60;99.90
13684;DHT22;6914;53.552;9.908;2022-12-16T00:33:10;-1.70;99.90
13684;DHT22;6914;53.552;9.908;2022-12-16T00:35:37;-1.40;99.90
13684;DHT22;6914;53.552;9.908;2022-12-16T00:38:04;-1.60;99.90
13684;DHT22;6914;53.552;9.908;2022-12-16T00:40:31;-1.60;99.90
13684;DHT22;6914;53.552;9.908;2022-12-16T00:42:59;-1.70;99.90
13684;DHT22;6914;53.552;9.908;2022-12-16T00:45:29;-1.40;99.90
13684;DHT22;6914;53.552;9.908;2022-12-16T00:47:56;-1.60;99.90
13684;DHT22;6914;53.552;9.908;2022-12-16T00:50:23;-1.80;99.90
13684;DHT22;6914;53.552;9.908;2022-12-16T00:52:49;-1.60;99.90
13684;DHT22;6914;53.552;9.908;2022-12-16T00:55:17;-1.70;99.90
13684;DHT22;6914;53.552;9.908;2022-12-16T00:57:44;-1.80;99.90
13684;DHT22;6914;53.552;9.908;2022-12-16T01:00:14;-2.00;99.90
13684;DHT22;6914;53.552;9.908;2022-12-16T01:02:42;-1.60;99.90
13684;DHT22;6914;53.552;9.908;2022-12-16T01:05:12;-1.70;99.90
13684;DHT22;6914;53.552;9.908;2022-12-16T01:07:40;-1.50;99.90
13684;DHT22;6914;53.552;9.908;2022-12-16T01:10:07;-1.90;99.90
13684;DHT22;6914;53.552;9.908;2022-12-16T01:12:34;-1.70;99.90
13684;DHT22;6914;53.552;9.908;2022-12-16T01:15:02;-1.10;99.90
13684;DHT22;6914;53.552;9.908;2022-12-16T01:17:31;0.00;99.90
13684;DHT22;6914;53.552;9.908;2022-12-16T01:19:59;-2.70;99.90
13684;DHT22;6914;53.552;9.908;2022-12-16T01:22:31;-1.60;99.90
13684;DHT22;6914;53.552;9.908;2022-12-16T01:24:58;-2.10;99.90
13684;DHT22;6914;53.552;9.908;2022-12-16T01:27:26;-2.20;99.90
13684;DHT22;6914;53.552;9.908;2022-12-16T01:29:53;-1.70;99.90
13684;DHT22;6914;53.552;9.908;2022-12-16T01:32:20;-1.70;99.90
13684;DHT22;6914;53.552;9.908;2022-12-16T01:34:50;-1.70;99.90
13684;DHT22;6914;53.552;9.908;2022-12-16T01:37:17;-1.90;99.90
13684;DHT22;6914;53.552;9.908;2022-12-16T01:39:45;-1.70;99.90
13684;DHT22;6914;53.552;9.908;2022-12-16T01:42:12;-1.50;99.90
13684;DHT22;6914;53.552;9.908;2022-12-16T01:44:42;-2.00;99.90
13684;DHT22;6914;53.552;9.908;2022-12-16T01:47:14;-1.90;99.90
13684;DHT22;6914;53.552;9.908;2022-12-16T01:49:44;-1.90;99.90
13684;DHT22;6914;53.552;9.908;2022-12-16T01:52:16;-1.80;99.90
13684;DHT22;6914;53.552;9.908;2022-12-16T01:54:46;-1.90;99.90
13684;DHT22;6914;53.552;9.908;2022-12-16T01:57:19;-1.90;99.90
13684;DHT22;6914;53.552;9.908;2022-12-16T01:59:49;-1.80;99.90
13684;DHT22;6914;53.552;9.908;2022-12-16T02:02:16;-1.40;99.90
13684;DHT22;6914;53.552;9.908;2022-12-16T02:04:43;-1.90;99.90
13684;DHT22;6914;53.552;9.908;2022-12-16T02:07:31;-2.00;99.90
13684;DHT22;6914;53.552;9.908;2022-12-16T02:09:58;-2.00;99.90
13684;DHT22;6914;53.552;9.908;2022-12-16T02:12:30;-1.60;99.90
13684;DHT22;6914;53.552;9.908;2022-12-16T02:15:13;-1.50;99.90
13684;DHT22;6914;53.552;9.908;2022-12-16T02:17:48;-2.20;99.90
13684;DHT22;6914;53.552;9.908;2022-12-16T02:20:37;-2.00;99.90
13684;DHT22;6914;53.552;9.908;2022-12-16T02:26:21;-2.20;99.90
13684;DHT22;6914;53.552;9.908;2022-12-16T02:29:06;-2.20;99.90
13684;DHT22;6914;53.552;9.908;2022-12-16T02:31:43;-2.30;99.90
13684;DHT22;6914;53.552;9.908;2022-12-16T02:34:20;-1.90;99.90
13684;DHT22;6914;53.552;9.908;2022-12-16T02:37:04;-2.30;99.90
13684;DHT22;6914;53.552;9.908;2022-12-16T02:39:37;-2.40;99.90
13684;DHT22;6914;53.552;9.908;2022-12-16T02:42:11;-2.80;99.90
13684;DHT22;6914;53.552;9.908;2022-12-16T02:44:43;-2.50;99.90
13684;DHT22;6914;53.552;9.908;2022-12-16T02:47:14;-2.50;99.90
13684;DHT22;6914;53.552;9.908;2022-12-16T02:49:48;-2.60;99.90
13684;DHT22;6914;53.552;9.908;2022-12-16T02:52:18;-2.60;99.90
13684;DHT22;6914;53.552;9.908;2022-12-16T02:54:48;-2.70;99.90
13684;DHT22;6914;53.552;9.908;2022-12-16T02:57:28;-2.90;99.90
13684;DHT22;6914;53.552;9.908;2022-12-16T03:00:04;-2.80;99.90
13684;DHT22;6914;53.552;9.908;2022-12-16T03:02:40;-2.70;99.90
13684;DHT22;6914;53.552;9.908;2022-12-16T03:05:15;-2.70;99.90
13684;DHT22;6914;53.552;9.908;2022-12-16T03:07:47;-2.10;99.90
13684;DHT22;6914;53.552;9.908;2022-12-16T03:10:17;-2.80;99.90
13684;DHT22;6914;53.552;9.908;2022-12-16T03:12:45;-3.20;99.90
13684;DHT22;6914;53.552;9.908;2022-12-16T03:15:14;-3.50;99.90
13684;DHT22;6914;53.552;9.908;2022-12-16T03:17:45;-2.90;99.90
13684;DHT22;6914;53.552;9.908;2022-12-16T03:20:17;-3.00;99.90
13684;DHT22;6914;53.552;9.908;2022-12-16T03:22:47;-3.00;99.90
13684;DHT22;6914;53.552;9.908;2022-12-16T03:25:16;-2.90;99.90
13684;DHT22;6914;53.552;9.908;2022-12-16T03:27:49;-3.00;99.90
13684;DHT22;6914;53.552;9.908;2022-12-16T03:30:22;-2.90;99.90
13684;DHT22;6914;53.552;9.908;2022-12-16T03:32:58;-3.00;99.90
13684;DHT22;6914;53.552;9.908;2022-12-16T03:35:30;-2.80;99.90
13684;DHT22;6914;53.552;9.908;2022-12-16T03:38:01;-3.00;99.90
13684;DHT22;6914;53.552;9.908;2022-12-16T03:40:29;-2.70;99.90
13684;DHT22;6914;53.552;9.908;2022-12-16T03:42:58;-2.50;99.90
13684;DHT22;6914;53.552;9.908;2022-12-16T03:45:31;-3.10;99.90
13684;DHT22;6914;53.552;9.908;2022-12-16T03:48:05;-3.10;99.90
13684;DHT22;6914;53.552;9.908;2022-12-16T03:50:33;-2.50;99.90
13684;DHT22;6914;53.552;9.908;2022-12-16T03:53:01;-3.30;99.90
13684;DHT22;6914;53.552;9.908;2022-12-16T03:55:28;-3.30;99.90
13684;DHT22;6914;53.552;9.908;2022-12-16T03:57:55;-3.20;99.90
13684;DHT22;6914;53.552;9.908;2022-12-16T04:00:23;-3.00;99.90
13684;DHT22;6914;53.552;9.908;2022-12-16T04:02:50;-2.80;99.90
13684;DHT22;6914;53.552;9.908;2022-12-16T04:05:18;-3.30;99.90
13684;DHT22;6914;53.552;9.908;2022-12-16T04:07:45;-3.30;99.90
13684;DHT22;6914;53.552;9.908;2022-12-16T04:10:11;-3.40;99.90
13684;DHT22;6914;53.552;9.908;2022-12-16T04:12:38;-3.00;99.90
13684;DHT22;6914;53.552;9.908;2022-12-16T04:15:31;-3.30;99.90
13684;DHT22;6914;53.552;9.908;2022-12-16T04:18:17;-1.80;99.90
13684;DHT22;6914;53.552;9.908;2022-12-16T04:21:05;-2.50;99.90
13684;DHT22;6914;53.552;9.908;2022-12-16T04:23:52;-3.20;99.90
13684;DHT22;6914;53.552;9.908;2022-12-16T04:26:37;-3.40;99.90
13684;DHT22;6914;53.552;9.908;2022-12-16T04:29:18;-3.10;99.90
13684;DHT22;6914;53.552;9.908;2022-12-16T04:31:45;-2.80;99.90
13684;DHT22;6914;53.552;9.908;2022-12-16T04:34:12;-3.10;99.90
13684;DHT22;6914;53.552;9.908;2022-12-16T04:36:51;-3.30;99.90
13684;DHT22;6914;53.552;9.908;2022-12-16T04:39:35;-3.20;99.90
13684;DHT22;6914;53.552;9.908;2022-12-16T04:42:19;-3.00;99.90
13684;DHT22;6914;53.552;9.908;2022-12-16T04:45:07;-3.60;99.90
13684;DHT22;6914;53.552;9.908;2022-12-16T04:47:52;-3.10;99.90
13684;DHT22;6914;53.552;9.908;2022-12-16T04:50:36;-3.20;99.90
13684;DHT22;6914;53.552;9.908;2022-12-16T04:53:22;-3.30;99.90
13684;DHT22;6914;53.552;9.908;2022-12-16T04:56:06;-3.50;99.90
13684;DHT22;6914;53.552;9.908;2022-12-16T04:58:50;-2.90;99.90
13684;DHT22;6914;53.552;9.908;2022-12-16T05:01:34;-3.60;99.90
13684;DHT22;6914;53.552;9.908;2022-12-16T05:04:18;-3.40;99.90
13684;DHT22;6914;53.552;9.908;2022-12-16T05:07:02;-3.50;99.90
13684;DHT22;6914;53.552;9.908;2022-12-16T05:09:48;-3.50;99.90
13684;DHT22;6914;53.552;9.908;2022-12-16T05:12:32;-3.40;99.90
13684;DHT22;6914;53.552;9.908;2022-12-16T05:15:17;-2.30;99.90
13684;DHT22;6914;53.552;9.908;2022-12-16T05:18:07;-0.40;99.90
13684;DHT22;6914;53.552;9.908;2022-12-16T05:20:51;-3.80;99.90
13684;DHT22;6914;53.552;9.908;2022-12-16T05:23:35;-3.90;99.90
13684;DHT22;6914;53.552;9.908;2022-12-16T05:26:21;-4.20;99.90
13684;DHT22;6914;53.552;9.908;2022-12-16T05:29:05;-4.00;99.90
13684;DHT22;6914;53.552;9.908;2022-12-16T05:31:50;-4.50;99.90
13684;DHT22;6914;53.552;9.908;2022-12-16T05:34:34;-4.00;99.90
13684;DHT22;6914;53.552;9.908;2022-12-16T05:37:18;-4.10;99.90
13684;DHT22;6914;53.552;9.908;2022-12-16T05:40:03;-4.10;99.90
13684;DHT22;6914;53.552;9.908;2022-12-16T05:42:49;-3.80;99.90
13684;DHT22;6914;53.552;9.908;2022-12-16T05:45:33;-3.90;99.90
13684;DHT22;6914;53.552;9.908;2022-12-16T05:48:14;-4.50;99.90
13684;DHT22;6914;53.552;9.908;2022-12-16T05:50:58;-3.90;99.90
13684;DHT22;6914;53.552;9.908;2022-12-16T05:53:42;-4.30;99.90
13684;DHT22;6914;53.552;9.908;2022-12-16T05:56:27;-4.30;99.90
13684;DHT22;6914;53.552;9.908;2022-12-16T05:59:12;-4.20;99.90
13684;DHT22;6914;53.552;9.908;2022-12-16T06:01:56;-4.20;99.90
13684;DHT22;6914;53.552;9.908;2022-12-16T06:04:41;-4.50;99.90
13684;DHT22;6914;53.552;9.908;2022-12-16T06:07:25;-4.20;99.90
13684;DHT22;6914;53.552;9.908;2022-12-16T06:10:09;-4.40;99.90
13684;DHT22;6914;53.552;9.908;2022-12-16T06:12:53;-4.40;99.90
13684;DHT22;6914;53.552;9.908;2022-12-16T06:15:39;-4.40;99.90
13684;DHT22;6914;53.552;9.908;2022-12-16T06:18:23;-4.40;99.90
13684;DHT22;6914;53.552;9.908;2022-12-16T06:21:07;-4.50;99.90
13684;DHT22;6914;53.552;9.908;2022-12-16T06:23:51;-4.20;99.90
13684;DHT22;6914;53.552;9.908;2022-12-16T06:26:35;-4.40;99.90
13684;DHT22;6914;53.552;9.908;2022-12-16T06:29:19;-4.80;99.90
13684;DHT22;6914;53.552;9.908;2022-12-16T06:32:07;-4.20;99.90
13684;DHT22;6914;53.552;9.908;2022-12-16T06:34:51;-4.50;99.90
13684;DHT22;6914;53.552;9.908;2022-12-16T06:37:35;-4.50;99.90
13684;DHT22;6914;53.552;9.908;2022-12-16T06:40:19;-4.60;99.90
13684;DHT22;6914;53.552;9.908;2022-12-16T06:43:05;-4.30;99.90
13684;DHT22;6914;53.552;9.908;2022-12-16T06:45:49;-4.50;99.90
13684;DHT22;6914;53.552;9.908;2022-12-16T06:48:35;-4.50;99.90
13684;DHT22;6914;53.552;9.908;2022-12-16T06:51:19;-4.40;99.90
13684;DHT22;6914;53.552;9.908;2022-12-16T06:54:03;-4.30;99.90
13684;DHT22;6914;53.552;9.908;2022-12-16T06:56:47;-4.20;99.90
13684;DHT22;6914;53.552;9.908;2022-12-16T06:59:32;-4.20;99.90
13684;DHT22;6914;53.552;9.908;2022-12-16T07:02:16;-4.20;99.90
13684;DHT22;6914;53.552;9.908;2022-12-16T07:05:03;-4.10;99.90
13684;DHT22;6914;53.552;9.908;2022-12-16T07:07:48;-4.00;99.90
13684;DHT22;6914;53.552;9.908;2022-12-16T07:10:44;-3.80;99.90
13684;DHT22;6914;53.552;9.908;2022-12-16T07:13:28;-2.30;99.90
13684;DHT22;6914;53.552;9.908;2022-12-16T07:16:18;-3.90;99.90
13684;DHT22;6914;53.552;9.908;2022-12-16T07:19:02;-3.90;99.90
13684;DHT22;6914;53.552;9.908;2022-12-16T07:21:53;-3.70;99.90
13684;DHT22;6914;53.552;9.908;2022-12-16T07:24:38;-4.20;99.90
13684;DHT22;6914;53.552;9.908;2022-12-16T07:27:22;-3.50;99.90
13684;DHT22;6914;53.552;9.908;2022-12-16T07:30:07;-3.50;99.90
13684;DHT22;6914;53.552;9.908;2022-12-16T07:32:51;-3.60;99.90
13684;DHT22;6914;53.552;9.908;2022-12-16T07:35:35;-3.50;99.90
13684;DHT22;6914;53.552;9.908;2022-12-16T07:38:21;-3.70;99.90
13684;DHT22;6914;53.552;9.908;2022-12-16T07:41:05;-3.50;99.90
13684;DHT22;6914;53.552;9.908;2022-12-16T07:43:50;-3.50;99.90
13684;DHT22;6914;53.552;9.908;2022-12-16T07:46:34;-3.40;99.90
13684;DHT22;6914;53.552;9.908;2022-12-16T07:49:18;-3.30;99.90
13684;DHT22;6914;53.552;9.908;2022-12-16T07:51:58;-3.40;99.90
13684;DHT22;6914;53.552;9.908;2022-12-16T07:54:44;-2.90;99.90
13684;DHT22;6914;53.552;9.908;2022-12-16T07:57:29;-3.50;99.90
13684;DHT22;6914;53.552;9.908;2022-12-16T08:00:13;-3.40;99.90
13684;DHT22;6914;53.552;9.908;2022-12-16T08:02:57;-3.30;99.90
13684;DHT22;6914;53.552;9.908;2022-12-16T08:05:42;-3.00;99.90
13684;DHT22;6914;53.552;9.908;2022-12-16T08:08:26;-3.10;99.90
13684;DHT22;6914;53.552;9.908;2022-12-16T08:11:11;-3.00;99.90
13684;DHT22;6914;53.552;9.908;2022-12-16T08:13:55;-2.90;99.90
13684;DHT22;6914;53.552;9.908;2022-12-16T08:16:40;-2.90;99.90
13684;DHT22;6914;53.552;9.908;2022-12-16T08:19:24;-2.80;99.90
13684;DHT22;6914;53.552;9.908;2022-12-16T08:22:08;-2.60;99.90
13684;DHT22;6914;53.552;9.908;2022-12-16T08:24:55;-2.70;99.90
13684;DHT22;6914;53.552;9.908;2022-12-16T08:27:42;-2.50;99.90
13684;DHT22;6914;53.552;9.908;2022-12-16T08:30:29;-2.50;99.90
13684;DHT22;6914;53.552;9.908;2022-12-16T08:33:13;-2.40;99.90
13684;DHT22;6914;53.552;9.908;2022-12-16T08:35:58;-2.30;99.90
13684;DHT22;6914;53.552;9.908;2022-12-16T08:38:43;-2.30;99.90
13684;DHT22;6914;53.552;9.908;2022-12-16T08:41:27;-1.90;99.90
13684;DHT22;6914;53.552;9.908;2022-12-16T08:44:13;-2.00;99.90
13684;DHT22;6914;53.552;9.908;2022-12-16T08:47:09;-2.20;99.90
13684;DHT22;6914;53.552;9.908;2022-12-16T08:49:53;-1.50;99.90
13684;DHT22;6914;53.552;9.908;2022-12-16T08:52:37;-1.70;99.90
13684;DHT22;6914;53.552;9.908;2022-12-16T08:55:21;-1.90;99.90
13684;DHT22;6914;53.552;9.908;2022-12-16T08:58:06;-1.70;99.90
13684;DHT22;6914;53.552;9.908;2022-12-16T09:00:52;-1.80;99.90
13684;DHT22;6914;53.552;9.908;2022-12-16T09:03:36;-1.50;99.90
13684;DHT22;6914;53.552;9.908;2022-12-16T09:06:20;-1.20;99.90
13684;DHT22;6914;53.552;9.908;2022-12-16T09:09:08;-1.60;99.90
13684;DHT22;6914;53.552;9.908;2022-12-16T09:11:52;-1.60;99.90
13684;DHT22;6914;53.552;9.908;2022-12-16T09:14:36;-1.60;99.90
13684;DHT22;6914;53.552;9.908;2022-12-16T09:17:22;-1.60;99.90
13684;DHT22;6914;53.552;9.908;2022-12-16T09:20:08;-1.60;99.90
13684;DHT22;6914;53.552;9.908;2022-12-16T09:22:53;-1.80;99.90
13684;DHT22;6914;53.552;9.908;2022-12-16T09:25:37;-1.60;99.90
13684;DHT22;6914;53.552;9.908;2022-12-16T09:28:17;-1.50;99.90
13684;DHT22;6914;53.552;9.908;2022-12-16T09:31:03;-1.40;99.90
13684;DHT22;6914;53.552;9.908;2022-12-16T09:33:49;-1.50;99.90
13684;DHT22;6914;53.552;9.908;2022-12-16T09:36:34;-1.50;99.90
13684;DHT22;6914;53.552;9.908;2022-12-16T09:39:18;-1.20;99.90
13684;DHT22;6914;53.552;9.908;2022-12-16T09:42:07;-1.40;99.90
13684;DHT22;6914;53.552;9.908;2022-12-16T09:44:59;-1.50;99.90
13684;DHT22;6914;53.552;9.908;2022-12-16T09:47:52;-1.60;99.90
13684;DHT22;6914;53.552;9.908;2022-12-16T09:50:42;-1.50;99.90
13684;DHT22;6914;53.552;9.908;2022-12-16T09:53:27;-1.70;99.90
13684;DHT22;6914;53.552;9.908;2022-12-16T09:56:16;-1.40;99.90
13684;DHT22;6914;53.552;9.908;2022-12-16T09:59:08;-1.30;99.90
13684;DHT22;6914;53.552;9.908;2022-12-16T10:01:54;-1.30;99.90
13684;DHT22;6914;53.552;9.908;2022-12-16T10:04:38;-1.30;99.90
13684;DHT22;6914;53.552;9.908;2022-12-16T10:07:30;-1.60;99.90
13684;DHT22;6914;53.552;9.908;2022-12-16T10:10:19;-0.20;99.90
13684;DHT22;6914;53.552;9.908;2022-12-16T10:13:15;-1.40;99.90
13684;DHT22;6914;53.552;9.908;2022-12-16T10:16:09;-1.60;99.90
13684;DHT22;6914;53.552;9.908;2022-12-16T10:19:00;-1.60;99.90
13684;DHT22;6914;53.552;9.908;2022-12-16T10:21:53;-1.60;99.90
13684;DHT22;6914;53.552;9.908;2022-12-16T10:24:49;-1.40;99.90
13684;DHT22;6914;53.552;9.908;2022-12-16T10:27:41;-1.70;99.90
13684;DHT22;6914;53.552;9.908;2022-12-16T10:30:26;-1.50;99.90
13684;DHT22;6914;53.552;9.908;2022-12-16T10:33:13;-1.60;99.90
13684;DHT22;6914;53.552;9.908;2022-12-16T10:35:59;-2.10;99.90
13684;DHT22;6914;53.552;9.908;2022-12-16T10:38:45;-1.40;99.90
13684;DHT22;6914;53.552;9.908;2022-12-16T10:41:34;-1.60;99.90
13684;DHT22;6914;53.552;9.908;2022-12-16T10:44:23;-1.70;99.90
13684;DHT22;6914;53.552;9.908;2022-12-16T10:47:09;-1.60;99.90
13684;DHT22;6914;53.552;9.908;2022-12-16T10:49:55;-1.50;99.90
13684;DHT22;6914;53.552;9.908;2022-12-16T10:52:44;-1.50;99.90
13684;DHT22;6914;53.552;9.908;2022-12-16T10:55:38;-1.50;99.90
13684;DHT22;6914;53.552;9.908;2022-12-16T10:58:35;-1.40;99.90
13684;DHT22;6914;53.552;9.908;2022-12-16T11:01:22;-1.40;99.90
13684;DHT22;6914;53.552;9.908;2022-12-16T11:04:27;-1.60;99.90
13684;DHT22;6914;53.552;9.908;2022-12-16T11:07:32;-1.60;99.90
13684;DHT22;6914;53.552;9.908;2022-12-16T11:10:25;-1.60;99.90
13684;DHT22;6914;53.552;9.908;2022-12-16T11:13:14;-1.60;99.90
13684;DHT22;6914;53.552;9.908;2022-12-16T11:16:16;-1.70;99.90
13684;DHT22;6914;53.552;9.908;2022-12-16T11:19:01;-1.70;99.90
13684;DHT22;6914;53.552;9.908;2022-12-16T11:21:46;-1.60;99.90
13684;DHT22;6914;53.552;9.908;2022-12-16T11:24:31;-1.40;99.90
13684;DHT22;6914;53.552;9.908;2022-12-16T11:27:21;-1.50;99.90
13684;DHT22;6914;53.552;9.908;2022-12-16T11:30:19;-1.50;99.90
13684;DHT22;6914;53.552;9.908;2022-12-16T11:33:11;-1.20;99.90
13684;DHT22;6914;53.552;9.908;2022-12-16T11:36:04;-1.40;99.90
13684;DHT22;6914;53.552;9.908;2022-12-16T11:38:51;-1.20;99.90
13684;DHT22;6914;53.552;9.908;2022-12-16T11:41:38;-1.40;99.90
13684;DHT22;6914;53.552;9.908;2022-12-16T11:44:28;-1.70;99.90
13684;DHT22;6914;53.552;9.908;2022-12-16T11:47:19;-1.60;99.90
13684;DHT22;6914;53.552;9.908;2022-12-16T11:50:12;-1.60;99.90
13684;DHT22;6914;53.552;9.908;2022-12-16T11:52:59;-1.70;99.90
13684;DHT22;6914;53.552;9.908;2022-12-16T11:55:47;-1.50;99.90
13684;DHT22;6914;53.552;9.908;2022-12-16T11:58:37;-0.80;99.90
13684;DHT22;6914;53.552;9.908;2022-12-16T12:01:27;-1.60;99.90
13684;DHT22;6914;53.552;9.908;2022-12-16T12:04:14;-1.40;99.90
13684;DHT22;6914;53.552;9.908;2022-12-16T12:07:18;-1.50;99.90
13684;DHT22;6914;53.552;9.908;2022-12-16T12:10:14;-1.50;99.90
13684;DHT22;6914;53.552;9.908;2022-12-16T12:13:04;-1.50;99.90
13684;DHT22;6914;53.552;9.908;2022-12-16T12:15:54;-1.60;99.90
13684;DHT22;6914;53.552;9.908;2022-12-16T12:18:47;-1.40;99.90
13684;DHT22;6914;53.552;9.908;2022-12-16T12:21:36;-0.80;99.90
13684;DHT22;6914;53.552;9.908;2022-12-16T12:24:28;-1.40;99.90
13684;DHT22;6914;53.552;9.908;2022-12-16T12:27:22;-1.30;99.90
13684;DHT22;6914;53.552;9.908;2022-12-16T12:30:11;-1.30;99.90
13684;DHT22;6914;53.552;9.908;2022-12-16T12:33:12;-1.30;99.90
13684;DHT22;6914;53.552;9.908;2022-12-16T12:36:02;-1.30;99.90
13684;DHT22;6914;53.552;9.908;2022-12-16T12:38:56;-1.10;99.90
13684;DHT22;6914;53.552;9.908;2022-12-16T12:42:01;-1.50;99.90
13684;DHT22;6914;53.552;9.908;2022-12-16T12:44:56;-1.20;99.90
13684;DHT22;6914;53.552;9.908;2022-12-16T12:47:47;-1.10;99.90
13684;DHT22;6914;53.552;9.908;2022-12-16T12:50:38;-1.10;99.90
13684;DHT22;6914;53.552;9.908;2022-12-16T12:53:33;-1.10;99.90
13684;DHT22;6914;53.552;9.908;2022-12-16T12:56:29;-1.20;99.90
13684;DHT22;6914;53.552;9.908;2022-12-16T12:59:22;-0.60;99.90
13684;DHT22;6914;53.552;9.908;2022-12-16T13:02:14;-1.20;99.90
13684;DHT22;6914;53.552;9.908;2022-12-16T13:05:00;-1.80;99.90
13684;DHT22;6914;53.552;9.908;2022-12-16T13:07:44;-1.10;99.90
13684;DHT22;6914;53.552;9.908;2022-12-16T13:10:32;-1.00;99.90
13684;DHT22;6914;53.552;9.908;2022-12-16T13:13:29;-1.10;99.90
13684;DHT22;6914;53.552;9.908;2022-12-16T13:19:44;-0.90;99.90
13684;DHT22;6914;53.552;9.908;2022-12-16T13:22:36;-0.80;99.90
13684;DHT22;6914;53.552;9.908;2022-12-16T13:25:45;-0.90;99.90
13684;DHT22;6914;53.552;9.908;2022-12-16T13:28:35;-0.70;99.90
13684;DHT22;6914;53.552;9.908;2022-12-16T13:31:20;-0.70;99.90
13684;DHT22;6914;53.552;9.908;2022-12-16T13:34:10;-0.70;99.90
13684;DHT22;6914;53.552;9.908;2022-12-16T13:37:05;-1.10;99.90
13684;DHT22;6914;53.552;9.908;2022-12-16T13:40:01;-1.20;99.90
13684;DHT22;6914;53.552;9.908;2022-12-16T13:42:52;-1.70;99.90
13684;DHT22;6914;53.552;9.908;2022-12-16T13:45:41;-1.20;99.90
13684;DHT22;6914;53.552;9.908;2022-12-16T13:48:38;2.00;99.90
13684;DHT22;6914;53.552;9.908;2022-12-16T13:55:22;-1.10;99.90
13684;DHT22;6914;53.552;9.908;2022-12-16T13:58:25;-1.10;99.90
13684;DHT22;6914;53.552;9.908;2022-12-16T14:01:26;-1.20;99.90
13684;DHT22;6914;53.552;9.908;2022-12-16T14:04:19;-1.30;99.90
13684;DHT22;6914;53.552;9.908;2022-12-16T14:07:06;-1.30;99.90
13684;DHT22;6914;53.552;9.908;2022-12-16T14:09:52;-1.30;99.90
13684;DHT22;6914;53.552;9.908;2022-12-16T14:12:53;-1.30;99.90
13684;DHT22;6914;53.552;9.908;2022-12-16T14:15:49;-1.30;99.90
13684;DHT22;6914;53.552;9.908;2022-12-16T14:18:43;-1.20;99.90
13684;DHT22;6914;53.552;9.908;2022-12-16T14:21:34;-1.20;99.90
13684;DHT22;6914;53.552;9.908;2022-12-16T14:24:23;-1.30;99.90
13684;DHT22;6914;53.552;9.908;2022-12-16T14:27:14;-1.40;99.90
13684;DHT22;6914;53.552;9.908;2022-12-16T14:30:02;-1.30;99.90
13684;DHT22;6914;53.552;9.908;2022-12-16T14:32:47;-1.40;99.90
13684;DHT22;6914;53.552;9.908;2022-12-16T14:35:31;-2.00;99.90
13684;DHT22;6914;53.552;9.908;2022-12-16T14:38:24;-1.40;99.90
13684;DHT22;6914;53.552;9.908;2022-12-16T14:41:11;-1.50;99.90
13684;DHT22;6914;53.552;9.908;2022-12-16T14:43:55;-1.60;99.90
13684;DHT22;6914;53.552;9.908;2022-12-16T14:46:41;-1.50;99.90
13684;DHT22;6914;53.552;9.908;2022-12-16T14:49:28;-0.80;99.90
13684;DHT22;6914;53.552;9.908;2022-12-16T14:52:22;-1.90;99.90
13684;DHT22;6914;53.552;9.908;2022-12-16T14:55:14;-1.60;99.90
13684;DHT22;6914;53.552;9.908;2022-12-16T14:58:04;-1.70;99.90
13684;DHT22;6914;53.552;9.908;2022-12-16T15:00:49;-2.10;99.90
13684;DHT22;6914;53.552;9.908;2022-12-16T15:03:38;-1.90;99.90
13684;DHT22;6914;53.552;9.908;2022-12-16T15:06:25;-1.80;99.90
13684;DHT22;6914;53.552;9.908;2022-12-16T15:09:19;-2.90;99.90
13684;DHT22;6914;53.552;9.908;2022-12-16T15:12:05;-2.50;99.90
13684;DHT22;6914;53.552;9.908;2022-12-16T15:14:52;-2.30;99.90
13684;DHT22;6914;53.552;9.908;2022-12-16T15:17:43;-2.40;99.90
13684;DHT22;6914;53.552;9.908;2022-12-16T15:20:32;-1.90;99.90
13684;DHT22;6914;53.552;9.908;2022-12-16T15:23:20;-2.40;99.90
13684;DHT22;6914;53.552;9.908;2022-12-16T15:26:16;-2.30;99.90
13684;DHT22;6914;53.552;9.908;2022-12-16T15:29:01;-2.50;99.90
13684;DHT22;6914;53.552;9.908;2022-12-16T15:31:45;-2.40;99.90
13684;DHT22;6914;53.552;9.908;2022-12-16T15:34:31;-1.60;99.90
13684;DHT22;6914;53.552;9.908;2022-12-16T15:37:21;-2.40;99.90
13684;DHT22;6914;53.552;9.908;2022-12-16T15:40:19;-2.80;99.90
13684;DHT22;6914;53.552;9.908;2022-12-16T15:43:04;-2.30;99.90
13684;DHT22;6914;53.552;9.908;2022-12-16T15:45:49;-2.30;99.90
13684;DHT22;6914;53.552;9.908;2022-12-16T15:48:34;-2.30;99.90
13684;DHT22;6914;53.552;9.908;2022-12-16T15:51:22;-2.10;99.90
13684;DHT22;6914;53.552;9.908;2022-12-16T15:54:20;-2.30;99.90
13684;DHT22;6914;53.552;9.908;2022-12-16T15:57:23;-1.80;99.90
13684;DHT22;6914;53.552;9.908;2022-12-16T16:00:18;-2.10;99.90
13684;DHT22;6914;53.552;9.908;2022-12-16T16:03:03;-2.00;99.90
13684;DHT22;6914;53.552;9.908;2022-12-16T16:05:48;-2.00;99.90
13684;DHT22;6914;53.552;9.908;2022-12-16T16:08:32;-1.90;99.90
13684;DHT22;6914;53.552;9.908;2022-12-16T16:11:19;-2.30;99.90
13684;DHT22;6914;53.552;9.908;2022-12-16T16:14:03;-2.00;99.90
13684;DHT22;6914;53.552;9.908;2022-12-16T16:16:47;-1.70;99.90
13684;DHT22;6914;53.552;9.908;2022-12-16T16:19:32;-2.00;99.90
13684;DHT22;6914;53.552;9.908;2022-12-16T16:22:17;-2.00;99.90
13684;DHT22;6914;53.552;9.908;2022-12-16T16:25:02;-2.30;99.90
13684;DHT22;6914;53.552;9.908;2022-12-16T16:27:48;-1.60;99.90
13684;DHT22;6914;53.552;9.908;2022-12-16T16:30:32;-2.10;99.90
13684;DHT22;6914;53.552;9.908;2022-12-16T16:33:16;-2.00;99.90
13684;DHT22;6914;53.552;9.908;2022-12-16T16:36:00;-2.00;99.90
13684;DHT22;6914;53.552;9.908;2022-12-16T16:38:45;-1.70;99.90
13684;DHT22;6914;53.552;9.908;2022-12-16T16:41:30;-2.10;99.90
13684;DHT22;6914;53.552;9.908;2022-12-16T16:44:16;-2.00;99.90
13684;DHT22;6914;53.552;9.908;2022-12-16T16:47:00;-2.00;99.90
13684;DHT22;6914;53.552;9.908;2022-12-16T16:49:45;-2.60;99.90
13684;DHT22;6914;53.552;9.908;2022-12-16T16:52:30;-2.10;99.90
13684;DHT22;6914;53.552;9.908;2022-12-16T16:55:17;-2.00;99.90
13684;DHT22;6914;53.552;9.908;2022-12-16T16:58:04;-2.20;99.90
13684;DHT22;6914;53.552;9.908;2022-12-16T17:00:51;-2.10;99.90
13684;DHT22;6914;53.552;9.908;2022-12-16T17:03:35;-2.20;99.90
13684;DHT22;6914;53.552;9.908;2022-12-16T17:06:19;-2.40;99.90
13684;DHT22;6914;53.552;9.908;2022-12-16T17:09:07;-2.20;99.90
13684;DHT22;6914;53.552;9.908;2022-12-16T17:12:14;-2.20;99.90
13684;DHT22;6914;53.552;9.908;2022-12-16T17:15:01;-2.10;99.90
13684;DHT22;6914;53.552;9.908;2022-12-16T17:17:47;-2.10;99.90
13684;DHT22;6914;53.552;9.908;2022-12-16T17:20:40;-2.20;99.90
13684;DHT22;6914;53.552;9.908;2022-12-16T17:23:24;-2.10;99.90
13684;DHT22;6914;53.552;9.908;2022-12-16T17:26:09;-2.10;99.90
13684;DHT22;6914;53.552;9.908;2022-12-16T17:29:02;-2.10;99.90
13684;DHT22;6914;53.552;9.908;2022-12-16T17:31:50;-2.10;99.90
13684;DHT22;6914;53.552;9.908;2022-12-16T17:34:36;-2.00;99.90
13684;DHT22;6914;53.552;9.908;2022-12-16T17:37:23;-2.00;99.90
13684;DHT22;6914;53.552;9.908;2022-12-16T17:40:08;-2.00;99.90